Savannah Hilton Head International Airport
KSAV : now visible

Airfield :











YOU CAN JOIN US ON...

 
LOGIN :

Register | Disclaimer

   EN    FR    IT 

 









Legend :    VFR   Marginal VFR   IFR   Intensive IFR   Very Intensive IFR
Visi :
Ceiling :
>= 8 km
>= 3000ft
5 to 8 km
1000 to 3000 ft
1500m to 5 km
500 to 1000 ft
800 to 1500m
200 to 500 ft
< 800m
< 200 ft
Symbols :   Thunderstorms  Fog  Heavy snow  Heavy precipitations  Wind > 20 kt







- Airport Elevation : 50 ft
- IATA code : SAV


KSAV - Savannah Hilton Head International

CURRENT METAR :
  • 201653Z 25015G25KT 10SM BKN055 17/05 A2986 RMK AO2 PK WND 24029/1641 SLP112 T01670050

EXPIRED METARs :
  • 201553Z 23017G25KT 10SM SCT040 BKN050 16/05 A2987 RMK AO2 PK WND 25026/1533 SLP112 T01560050
  • 201453Z 23017G26KT 10SM SCT040 BKN048 16/06 A2987 RMK AO2 PK WND 22026/1449 SLP112 T01610056 53011
  • 201353Z 26013KT 10SM SCT025 15/07 A2985 RMK AO2 SLP108 T01500072

TAF KSAV
Valid from the 20 at 15:00 until the 21 at 12:00 UTC


201520Z 2015/2112 24016G25KT P6SM BKN050
FM210100 25006KT P6SM SKC
KZJX FIR / North America



MET'MAP, your aeronautical weather chart ! - Copyright ORBIFLY December 2007 - Disclaimer

ORBIFLY MET'MAP TEAM :

Programming & Development : Alexandra Zaïnal
Concept & Development : Baudouin d'Aumeries
Co-Development & Prog : Marc-Olivier Méhu
Technical & hardware support : Manuel Goepfert

Contact : metmap@orbifly.com




SOURCES & CREDITS :

   NOAA       Earth
Advisory